Time;durP1;ratioP1;P1;durP2;ratioP2;P2;SDS_P1;SDS_P2;PMS_P1;PMS_P2;Temp;Humidity;BMP_temperature;BMP_pressure;BME280_temperature;BME280_humidity;BME280_pressure;Samples;Min_cycle;Max_cycle;Signal;HPM_P1;HPM_P2
2023/10/06 00:04:38;;;;;;;7.03;3.28;;;;;;;11.80;69.07;101425.72;10380969;28;20047;-58
2023/10/06 00:09:43;;;;;;;9.23;2.50;;;;;;;11.74;68.78;101434.41;10381102;28;20046;-57
2023/10/06 00:14:48;;;;;;;6.57;1.85;;;;;;;11.68;68.81;101425.13;10375032;28;20056;-57
2023/10/06 00:19:51;;;;;;;8.25;1.85;;;;;;;11.50;69.08;101427.84;10380522;28;20060;-57
2023/10/06 00:24:59;;;;;;;6.60;1.85;;;;;;;11.40;69.54;101443.22;10381903;28;20054;-58
2023/10/06 00:30:11;;;;;;;8.52;1.73;;;;;;;11.24;69.93;101452.00;10384348;28;20042;-57
2023/10/06 00:35:15;;;;;;;6.07;2.03;;;;;;;11.21;70.07;101445.06;10386599;28;20048;-58
2023/10/06 00:40:19;;;;;;;4.35;1.63;;;;;;;11.24;69.93;101447.47;10381267;28;20042;-58
2023/10/06 00:45:24;;;;;;;6.38;2.25;;;;;;;11.26;69.63;101447.31;10377591;28;20523;-58
2023/10/06 00:50:26;;;;;;;6.55;1.58;;;;;;;11.28;69.69;101442.63;10380931;28;20095;-58
2023/10/06 00:55:30;;;;;;;3.53;2.00;;;;;;;11.30;69.66;101430.69;10385730;28;20053;-59
2023/10/06 01:00:37;;;;;;;6.07;1.88;;;;;;;11.33;69.40;101437.59;10388502;28;20046;-58
2023/10/06 01:05:38;;;;;;;4.18;1.90;;;;;;;11.31;69.47;101431.53;10387846;28;20038;-58
2023/10/06 01:10:40;;;;;;;7.50;2.22;;;;;;;11.31;69.65;101418.94;10388391;28;20052;-58
2023/10/06 01:15:55;;;;;;;5.82;2.53;;;;;;;11.32;69.27;101425.16;10381731;28;20050;-58
2023/10/06 01:21:06;;;;;;;3.47;1.52;;;;;;;11.27;69.50;101416.69;10387088;28;20055;-58
2023/10/06 01:26:13;;;;;;;2.53;1.17;;;;;;;11.24;69.07;101420.53;10389597;28;20471;-58
2023/10/06 01:31:14;;;;;;;4.78;1.52;;;;;;;11.22;69.20;101430.63;10382392;28;21013;-58
2023/10/06 01:36:22;;;;;;;3.05;1.55;;;;;;;11.13;69.46;101426.16;10380934;28;20069;-58
2023/10/06 01:41:26;;;;;;;7.63;1.50;;;;;;;11.14;69.34;101418.91;10386565;28;20042;-59
2023/10/06 01:46:28;;;;;;;4.05;1.50;;;;;;;11.10;69.53;101415.69;10387729;28;20468;-58
2023/10/06 01:51:39;;;;;;;4.68;1.65;;;;;;;11.05;69.56;101413.44;10384394;28;20044;-58
2023/10/06 01:56:44;;;;;;;3.40;1.13;;;;;;;11.04;69.35;101408.25;10383847;28;20044;-58
2023/10/06 02:01:47;;;;;;;4.22;1.35;;;;;;;10.99;69.70;101408.69;10384252;28;20041;-58
2023/10/06 02:06:51;;;;;;;4.20;1.75;;;;;;;10.96;69.37;101418.91;10378722;28;20123;-58
2023/10/06 02:11:55;;;;;;;7.68;1.75;;;;;;;10.76;70.10;101423.56;10385829;28;20038;-58
2023/10/06 02:16:56;;;;;;;4.20;2.08;;;;;;;10.71;69.93;101426.72;10384387;28;20491;-58
2023/10/06 02:21:58;;;;;;;4.50;1.67;;;;;;;10.74;70.21;101420.19;10385707;28;20042;-57
2023/10/06 02:27:01;;;;;;;2.95;1.40;;;;;;;10.77;69.93;101420.72;10388521;28;20538;-58
2023/10/06 02:32:06;;;;;;;4.65;1.48;;;;;;;10.78;69.81;101414.38;10377051;28;20531;-58
2023/10/06 02:37:08;;;;;;;3.15;1.48;;;;;;;10.81;69.64;101405.13;10379062;28;20045;-59
2023/10/06 02:42:13;;;;;;;8.98;1.67;;;;;;;10.82;69.93;101401.44;10382527;28;20044;-57
2023/10/06 02:47:15;;;;;;;4.57;1.55;;;;;;;10.79;69.91;101402.59;10381491;28;20056;-57
2023/10/06 02:52:23;;;;;;;3.58;1.55;;;;;;;10.78;69.58;101400.06;10378240;28;20064;-56
2023/10/06 02:57:25;;;;;;;5.13;2.05;;;;;;;10.77;69.93;101387.63;10384559;28;20088;-56
2023/10/06 03:02:27;;;;;;;4.93;2.00;;;;;;;10.79;69.58;101391.84;10381919;28;20045;-57
2023/10/06 03:07:30;;;;;;;6.57;2.33;;;;;;;10.80;69.81;101387.28;10383248;28;20668;-56
2023/10/06 03:12:32;;;;;;;8.02;2.65;;;;;;;10.82;69.77;101388.00;10378282;28;20108;-56
2023/10/06 03:17:34;;;;;;;5.65;2.00;;;;;;;10.79;70.18;101399.06;10382182;28;20044;-57
2023/10/06 03:22:38;;;;;;;8.18;1.88;;;;;;;10.64;70.31;101396.91;10383723;28;20229;-56
2023/10/06 03:27:40;;;;;;;6.32;1.92;;;;;;;10.66;70.00;101388.66;10383283;28;20053;-56
2023/10/06 03:32:43;;;;;;;9.63;3.40;;;;;;;10.68;70.02;101392.91;10379638;28;20052;-56
2023/10/06 03:37:51;;;;;;;8.30;3.55;;;;;;;10.71;70.07;101389.06;10375878;28;20567;-56
2023/10/06 03:42:54;;;;;;;11.45;3.40;;;;;;;10.71;70.16;101397.97;10378543;28;20042;-57
2023/10/06 03:48:13;;;;;;;14.38;5.30;;;;;;;10.74;69.89;101393.28;10377866;28;20068;-57
2023/10/06 03:53:15;;;;;;;12.30;3.85;;;;;;;10.70;70.28;101408.88;10374608;28;20045;-57
2023/10/06 03:58:18;;;;;;;8.77;3.63;;;;;;;10.69;70.48;101397.28;10380027;28;20096;-56
2023/10/06 04:03:21;;;;;;;10.00;3.03;;;;;;;10.59;70.36;101390.28;10379644;28;20030;-56
2023/10/06 04:08:22;;;;;;;9.43;3.30;;;;;;;10.63;70.11;101395.19;10378630;28;20041;-58
2023/10/06 04:13:25;;;;;;;5.13;2.00;;;;;;;10.54;70.43;101395.25;10375085;28;20038;-57
2023/10/06 04:18:27;;;;;;;10.00;4.72;;;;;;;10.49;70.63;101393.84;10374731;28;20056;-57
2023/10/06 04:23:28;;;;;;;7.20;2.67;;;;;;;10.62;70.62;101388.09;10379042;28;20092;-58
2023/10/06 04:28:30;;;;;;;5.55;2.58;;;;;;;10.73;70.52;101405.06;10374920;28;20791;-58
2023/10/06 04:33:33;;;;;;;5.65;2.47;;;;;;;10.79;70.35;101410.66;10376531;28;20040;-55
2023/10/06 04:38:37;;;;;;;3.47;2.00;;;;;;;10.82;70.52;101420.25;10376544;28;20037;-56
2023/10/06 04:43:45;;;;;;;4.60;2.75;;;;;;;10.87;70.30;101404.53;10373127;28;20044;-55
2023/10/06 04:48:48;;;;;;;6.00;2.15;;;;;;;10.98;70.22;101403.44;10382857;28;20065;-57
2023/10/06 04:53:49;;;;;;;7.93;2.53;;;;;;;11.04;70.56;101397.47;10374734;28;20038;-56
2023/10/06 04:58:53;;;;;;;7.70;1.88;;;;;;;11.21;70.08;101390.41;10376134;28;20057;-55
2023/10/06 05:03:55;;;;;;;6.38;3.10;;;;;;;11.33;70.41;101386.47;10376217;28;20042;-56
2023/10/06 05:08:57;;;;;;;7.30;3.35;;;;;;;11.42;70.25;101382.00;10388515;28;20169;-57
2023/10/06 05:13:58;;;;;;;7.35;2.60;;;;;;;11.51;70.51;101397.19;10381495;28;20048;-56
2023/10/06 05:19:03;;;;;;;5.03;2.33;;;;;;;11.57;70.40;101391.22;10381250;28;20065;-56
2023/10/06 05:24:07;;;;;;;6.30;2.72;;;;;;;11.63;70.50;101395.97;10391628;28;20528;-56
2023/10/06 05:29:14;;;;;;;8.15;2.85;;;;;;;11.69;70.18;101399.88;10377670;28;20054;-56
2023/10/06 05:34:17;;;;;;;12.85;3.20;;;;;;;11.67;70.12;101399.16;10369826;28;20061;-58
2023/10/06 05:39:19;;;;;;;17.30;4.35;;;;;;;11.74;70.28;101411.03;10375140;28;20405;-58
2023/10/06 05:44:21;;;;;;;26.90;5.18;;;;;;;11.79;70.25;101413.22;10380123;28;20057;-59
2023/10/06 05:49:23;;;;;;;20.35;5.78;;;;;;;11.76;70.18;101410.88;10381663;28;20064;-60
2023/10/06 05:54:26;;;;;;;27.33;6.78;;;;;;;11.86;70.33;101422.38;10387236;28;20049;-62
2023/10/06 05:59:29;;;;;;;20.75;5.57;;;;;;;11.98;70.27;101413.06;10383949;28;20073;-61
2023/10/06 06:04:30;;;;;;;18.35;5.22;;;;;;;12.05;70.19;101406.03;10384065;28;20425;-62
2023/10/06 06:09:33;;;;;;;20.85;4.90;;;;;;;12.15;70.68;101414.00;10381503;28;20045;-61
2023/10/06 06:14:35;;;;;;;26.48;5.32;;;;;;;12.21;70.73;101415.22;10387795;28;20072;-61
2023/10/06 06:19:36;;;;;;;24.30;6.45;;;;;;;12.32;70.42;101422.19;10387235;28;20049;-63
2023/10/06 06:24:38;;;;;;;23.70;5.47;;;;;;;12.36;70.31;101435.19;10384076;28;20060;-62
2023/10/06 06:29:39;;;;;;;24.60;5.88;;;;;;;12.48;70.41;101428.50;10383337;28;20121;-63
2023/10/06 06:34:41;;;;;;;25.00;6.43;;;;;;;12.59;70.11;101426.50;10381230;28;20374;-62
2023/10/06 06:39:44;;;;;;;27.70;6.63;;;;;;;12.70;70.13;101427.06;10388898;28;20042;-63
2023/10/06 06:44:48;;;;;;;32.03;6.45;;;;;;;12.76;70.33;101419.34;10382083;28;20131;-62
2023/10/06 06:49:50;;;;;;;19.55;6.60;;;;;;;12.86;70.22;101423.56;10377667;28;20041;-62
2023/10/06 06:54:51;;;;;;;19.45;6.88;;;;;;;12.89;70.27;101425.09;10378072;28;20046;-62
2023/10/06 06:59:52;;;;;;;23.35;7.00;;;;;;;12.93;70.11;101428.31;10378313;28;20049;-60
2023/10/06 07:04:55;;;;;;;24.83;7.03;;;;;;;12.79;70.03;101430.63;10378576;28;20080;-57
2023/10/06 07:09:56;;;;;;;17.27;6.43;;;;;;;12.92;70.11;101424.78;10381777;28;20049;-58
2023/10/06 07:14:58;;;;;;;21.55;7.15;;;;;;;12.92;69.95;101423.94;10382129;28;20128;-59
2023/10/06 07:20:00;;;;;;;16.38;6.82;;;;;;;12.85;69.94;101435.34;10376414;28;20034;-58
2023/10/06 07:25:04;;;;;;;19.48;8.07;;;;;;;12.72;70.17;101436.84;10378438;28;20056;-59
2023/10/06 07:30:10;;;;;;;17.10;7.97;;;;;;;12.98;70.00;101436.75;10378361;28;20046;-60
2023/10/06 07:35:13;;;;;;;14.85;8.18;;;;;;;13.21;69.76;101439.66;10376695;28;20046;-59
2023/10/06 07:40:18;;;;;;;18.90;8.25;;;;;;;13.27;69.86;101437.16;10381979;28;20183;-58
2023/10/06 07:45:20;;;;;;;17.65;8.88;;;;;;;13.46;69.73;101430.59;10380647;28;20176;-58
2023/10/06 07:50:29;;;;;;;18.58;8.68;;;;;;;13.58;69.64;101433.81;10377116;28;20204;-58
2023/10/06 07:55:31;;;;;;;18.13;8.63;;;;;;;13.36;70.23;101434.50;10376381;28;20041;-59
2023/10/06 08:00:38;;;;;;;20.02;8.07;;;;;;;13.55;69.87;101452.25;10383022;28;20053;-58
2023/10/06 08:05:40;;;;;;;17.03;8.37;;;;;;;13.66;69.29;101446.47;10382931;28;20103;-57
2023/10/06 08:10:42;;;;;;;14.70;7.78;;;;;;;13.65;69.38;101445.63;10380118;28;20056;-58
2023/10/06 08:15:44;;;;;;;18.08;8.80;;;;;;;13.61;69.82;101441.59;10379508;28;20041;-62
2023/10/06 08:20:46;;;;;;;12.68;7.00;;;;;;;13.78;69.66;101430.75;10382708;28;20730;-63
2023/10/06 08:25:49;;;;;;;16.42;7.22;;;;;;;13.93;69.72;101433.63;10380020;28;20064;-59
2023/10/06 08:30:58;;;;;;;13.35;6.85;;;;;;;14.22;69.29;101433.06;10379170;28;20173;-59
2023/10/06 08:36:01;;;;;;;10.52;7.35;;;;;;;14.53;69.39;101427.69;10380235;28;20042;-58
2023/10/06 08:41:04;;;;;;;15.20;6.00;;;;;;;14.76;68.98;101426.97;10378766;28;20048;-57
2023/10/06 08:46:06;;;;;;;12.13;6.38;;;;;;;15.02;68.87;101418.53;10380117;28;20133;-60
2023/10/06 08:51:14;;;;;;;12.95;5.72;;;;;;;15.33;68.41;101412.22;10377837;28;20042;-58
2023/10/06 08:56:15;;;;;;;11.30;5.60;;;;;;;15.49;68.35;101412.09;10385119;28;20055;-59
2023/10/06 09:01:18;;;;;;;12.73;5.65;;;;;;;15.73;68.38;101404.78;10375608;28;20096;-60
2023/10/06 09:06:19;;;;;;;13.05;6.03;;;;;;;15.79;67.90;101396.75;10379717;28;20057;-58
2023/10/06 09:11:40;;;;;;;12.10;5.40;;;;;;;16.08;67.33;101394.28;10379309;28;20049;-58
2023/10/06 09:16:51;;;;;;;13.85;5.32;;;;;;;16.39;66.77;101396.78;10383408;28;20067;-59
2023/10/06 09:22:04;;;;;;;11.65;5.05;;;;;;;16.61;66.35;101395.81;10386315;28;20108;-58
2023/10/06 09:27:19;;;;;;;11.70;4.63;;;;;;;16.77;65.71;101389.31;10386220;28;20054;-59
2023/10/06 09:32:21;;;;;;;11.82;4.40;;;;;;;16.97;65.12;101397.72;10392820;28;20045;-64
2023/10/06 09:37:24;;;;;;;11.27;4.55;;;;;;;17.12;64.82;101381.38;10391084;28;20446;-62
2023/10/06 09:42:29;;;;;;;8.15;4.13;;;;;;;17.30;64.46;101374.63;10384368;28;20156;-64
2023/10/06 09:47:37;;;;;;;9.93;4.47;;;;;;;17.27;63.92;101375.03;10389323;28;20076;-63
2023/10/06 09:52:43;;;;;;;12.55;4.40;;;;;;;17.39;63.72;101374.28;10393189;28;20104;-61
2023/10/06 09:57:47;;;;;;;;;;;;;;;17.57;63.90;101365.66;10388195;28;20521;-60
2023/10/06 10:02:50;;;;;;;9.40;4.10;;;;;;;17.74;62.97;101358.06;10391975;28;19944;-60
2023/10/06 10:07:54;;;;;;;9.05;3.80;;;;;;;17.91;62.64;101357.78;10392532;28;20065;-63
2023/10/06 10:13:01;;;;;;;10.18;3.60;;;;;;;18.01;62.35;101347.41;10374134;28;20042;-61
2023/10/06 10:18:45;;;;;;;11.30;4.95;;;;;;;18.29;61.84;101341.03;10384254;28;20129;-64
2023/10/06 10:23:48;;;;;;;13.75;4.53;;;;;;;18.48;61.49;101331.25;10386189;28;20049;-63
2023/10/06 10:29:17;;;;;;;15.25;4.60;;;;;;;18.58;61.20;101332.56;10384354;28;20120;-63
2023/10/06 10:34:21;;;;;;;14.55;4.50;;;;;;;18.73;60.69;101337.81;10380145;28;20064;-63
2023/10/06 10:39:27;;;;;;;17.27;4.10;;;;;;;18.87;60.34;101327.00;10380350;28;20092;-61
2023/10/06 10:44:28;;;;;;;11.52;2.88;;;;;;;18.89;59.56;101333.06;10381576;28;20500;-58
2023/10/06 10:49:32;;;;;;;9.13;3.58;;;;;;;18.87;59.22;101329.72;10389441;28;20403;-59
2023/10/06 10:54:39;;;;;;;9.00;2.72;;;;;;;18.94;58.74;101330.59;10380722;28;20041;-59
2023/10/06 11:00:00;;;;;;;6.97;2.50;;;;;;;18.93;58.72;101316.09;10381673;28;20045;-58
2023/10/06 11:05:04;;;;;;;6.85;1.80;;;;;;;19.08;57.69;101305.00;10383071;28;20046;-60
2023/10/06 11:10:06;;;;;;;3.72;1.10;;;;;;;19.14;57.20;101306.91;10378663;28;20509;-60
2023/10/06 11:15:13;;;;;;;5.68;0.90;;;;;;;19.28;56.93;101290.56;10380403;28;20050;-59
2023/10/06 11:20:34;;;;;;;6.60;1.35;;;;;;;19.45;56.35;101288.22;10382834;28;20055;-60
2023/10/06 11:25:48;;;;;;;5.10;1.40;;;;;;;19.72;55.52;101287.16;10381718;28;20124;-61
2023/10/06 11:30:49;;;;;;;6.15;1.85;;;;;;;19.78;55.15;101280.81;10384762;28;20069;-60
2023/10/06 11:35:54;;;;;;;5.50;1.45;;;;;;;19.73;54.94;101267.00;10375297;28;20060;-59
2023/10/06 11:40:56;;;;;;;4.75;1.77;;;;;;;20.14;54.18;101262.22;10380021;28;20045;-60
2023/10/06 11:46:02;;;;;;;3.88;1.25;;;;;;;20.69;52.41;101248.09;10389078;28;20045;-59
2023/10/06 11:51:08;;;;;;;5.90;1.20;;;;;;;21.62;50.28;101244.53;10384085;28;20084;-62
2023/10/06 11:56:15;;;;;;;7.55;1.65;;;;;;;21.74;49.81;101236.41;10384133;28;20412;-62
2023/10/06 12:01:32;;;;;;;9.13;2.60;;;;;;;21.78;49.55;101223.94;10382069;28;20045;-65
2023/10/06 12:06:42;;;;;;;4.05;1.80;;;;;;;21.67;48.88;101227.44;10380880;28;20053;-65
2023/10/06 12:11:44;;;;;;;4.32;1.50;;;;;;;21.73;48.86;101215.59;10381321;28;20136;-66
2023/10/06 12:16:47;;;;;;;8.57;1.88;;;;;;;21.90;48.74;101216.63;10378177;28;20060;-69
2023/10/06 12:21:52;;;;;;;9.30;2.10;;;;;;;21.78;49.08;101207.50;10377829;28;20140;-63
2023/10/06 12:26:53;;;;;;;5.68;1.92;;;;;;;21.88;48.40;101199.59;10385773;28;20060;-64
2023/10/06 12:31:58;;;;;;;5.43;1.30;;;;;;;21.97;48.14;101200.94;10380191;28;20049;-64
2023/10/06 12:37:04;;;;;;;6.78;1.30;;;;;;;22.28;47.02;101177.16;10376236;28;20117;-64
2023/10/06 12:42:05;;;;;;;7.53;1.35;;;;;;;22.42;46.84;101161.38;10385326;28;20059;-65
2023/10/06 12:47:10;;;;;;;5.05;1.00;;;;;;;22.51;46.99;101172.81;10382930;28;20045;-65
2023/10/06 12:52:12;;;;;;;5.07;1.52;;;;;;;22.58;46.96;101165.31;10380007;28;20454;-63
2023/10/06 12:57:14;;;;;;;6.45;1.30;;;;;;;22.66;46.36;101166.88;10380152;28;20045;-64
2023/10/06 13:02:24;;;;;;;5.35;1.50;;;;;;;22.64;46.55;101172.59;10374967;28;20136;-65
2023/10/06 13:07:31;;;;;;;3.63;1.30;;;;;;;22.64;46.89;101152.59;10378169;28;20054;-64
2023/10/06 13:12:36;;;;;;;5.68;1.48;;;;;;;22.81;46.69;101156.31;10381307;28;20124;-65
2023/10/06 13:17:37;;;;;;;6.47;1.52;;;;;;;22.84;46.57;101144.00;10377567;28;20034;-63
2023/10/06 13:22:44;;;;;;;7.03;1.65;;;;;;;22.68;46.87;101137.34;10377146;28;20058;-62
2023/10/06 13:27:49;;;;;;;11.38;2.00;;;;;;;22.76;46.70;101139.72;10376797;28;20523;-64
2023/10/06 13:32:52;;;;;;;7.17;1.20;;;;;;;22.89;46.36;101142.22;10378350;28;20078;-64
2023/10/06 13:37:54;;;;;;;4.93;1.63;;;;;;;22.90;46.10;101134.84;10378242;28;20077;-64
2023/10/06 13:42:55;;;;;;;4.72;1.65;;;;;;;23.27;46.22;101143.66;10380227;28;20041;-64
2023/10/06 13:47:59;;;;;;;5.15;2.03;;;;;;;23.28;45.53;101147.22;10379874;28;20046;-63
2023/10/06 13:53:04;;;;;;;8.73;1.90;;;;;;;22.90;46.27;101143.88;10379593;28;20544;-63
2023/10/06 13:58:08;;;;;;;6.20;1.80;;;;;;;22.61;46.70;101131.97;10382474;28;20287;-64
2023/10/06 14:03:14;;;;;;;6.13;1.92;;;;;;;22.56;46.42;101121.72;10383176;28;20055;-63
2023/10/06 14:08:17;;;;;;;4.53;1.08;;;;;;;22.41;46.97;101123.25;10385079;28;20049;-64
2023/10/06 14:13:27;;;;;;;5.00;1.60;;;;;;;22.22;47.13;101120.56;10387628;28;20497;-62
2023/10/06 14:18:32;;;;;;;5.47;1.38;;;;;;;22.56;46.94;101120.88;10388584;28;20573;-64
2023/10/06 14:23:39;;;;;;;7.82;2.00;;;;;;;22.78;46.16;101132.09;10390173;28;20497;-60
2023/10/06 14:28:41;;;;;;;5.78;1.42;;;;;;;22.83;46.06;101124.00;10385842;28;20136;-60
2023/10/06 14:33:57;;;;;;;4.28;1.50;;;;;;;23.70;44.44;101114.91;10386877;28;20509;-60
2023/10/06 14:49:42;;;;;;;6.63;1.95;;;;;;;23.27;45.39;101104.41;10342172;28;20523;-60
2023/10/06 14:54:44;;;;;;;7.20;1.58;;;;;;;22.92;45.78;101092.38;10342561;28;20050;-60
2023/10/06 14:59:46;;;;;;;4.03;1.33;;;;;;;22.64;46.23;101087.63;10342815;28;20046;-60
2023/10/06 15:04:47;;;;;;;5.05;1.35;;;;;;;22.48;46.69;101091.91;10344173;28;20133;-59
2023/10/06 15:09:49;;;;;;;9.63;1.42;;;;;;;22.46;46.60;101101.47;10341076;28;20264;-59
2023/10/06 15:14:53;;;;;;;9.38;1.85;;;;;;;22.33;46.90;101094.28;10350484;28;20042;-60
2023/10/06 15:19:58;;;;;;;5.75;1.35;;;;;;;22.31;46.14;101089.03;10335068;28;20050;-60
2023/10/06 15:25:00;;;;;;;4.82;1.73;;;;;;;22.09;47.42;101077.75;10343532;28;20133;-60
2023/10/06 15:30:04;;;;;;;5.43;1.58;;;;;;;22.03;47.08;101075.13;10341702;28;20070;-60
2023/10/06 15:35:05;;;;;;;10.18;1.67;;;;;;;21.92;47.50;101071.28;10339459;28;20054;-61
2023/10/06 15:40:10;;;;;;;10.55;1.38;;;;;;;21.72;47.46;101066.09;10348467;28;20072;-61
2023/10/06 15:45:13;;;;;;;4.50;1.20;;;;;;;21.64;48.22;101071.91;10343013;28;20050;-61
2023/10/06 15:50:15;;;;;;;6.32;1.58;;;;;;;21.62;47.81;101083.09;10352390;28;20169;-60
2023/10/06 15:55:24;;;;;;;5.60;1.10;;;;;;;21.42;48.58;101087.97;10342160;28;20587;-61
2023/10/06 16:00:26;;;;;;;11.15;3.30;;;;;;;21.32;48.85;101078.38;10341730;28;20081;-61
2023/10/06 16:05:28;;;;;;;4.30;1.70;;;;;;;21.24;48.79;101075.16;10342832;28;20039;-61
2023/10/06 16:10:34;;;;;;;6.38;1.00;;;;;;;21.02;49.59;101074.78;10340583;28;20046;-60
2023/10/06 16:15:41;;;;;;;5.47;0.93;;;;;;;20.88;49.91;101074.09;10341362;28;20089;-60
2023/10/06 16:21:00;;;;;;;8.55;1.38;;;;;;;20.75;50.49;101075.03;10337531;28;20041;-60
2023/10/06 16:26:03;;;;;;;5.10;1.52;;;;;;;20.71;50.58;101073.81;10339190;28;20034;-62
2023/10/06 16:31:06;;;;;;;6.97;1.85;;;;;;;20.53;50.46;101069.13;10342653;28;20045;-62
2023/10/06 16:36:11;;;;;;;5.93;2.00;;;;;;;20.34;51.14;101073.69;10339603;28;20099;-61
2023/10/06 16:41:13;;;;;;;6.65;1.20;;;;;;;20.20;50.98;101064.78;10344293;28;20064;-61
2023/10/06 16:46:16;;;;;;;7.97;1.67;;;;;;;20.03;51.30;101069.97;10335406;28;20046;-60
2023/10/06 16:51:18;;;;;;;6.03;2.08;;;;;;;19.85;51.99;101078.09;10338157;28;20073;-59
2023/10/06 16:56:22;;;;;;;5.63;2.38;;;;;;;19.67;52.06;101086.94;10337004;28;20038;-60
2023/10/06 17:01:24;;;;;;;8.13;2.20;;;;;;;19.55;52.34;101092.25;10338042;28;20069;-60
2023/10/06 17:06:26;;;;;;;9.38;1.98;;;;;;;19.37;52.84;101088.34;10337460;28;20382;-59
2023/10/06 17:11:27;;;;;;;6.30;2.15;;;;;;;19.22;53.12;101090.50;10337638;28;20469;-59
2023/10/06 17:16:29;;;;;;;5.32;2.00;;;;;;;19.01;53.62;101089.72;10366774;28;20042;-59
2023/10/06 17:21:31;;;;;;;5.18;1.70;;;;;;;18.82;54.32;101088.72;10377124;28;20087;-59
2023/10/06 17:26:32;;;;;;;10.68;2.60;;;;;;;18.65;54.69;101090.19;10383435;28;20547;-58
2023/10/06 17:31:34;;;;;;;26.17;8.23;;;;;;;18.45;55.14;101089.38;10383351;28;20046;-58
2023/10/06 17:36:36;;;;;;;25.30;7.28;;;;;;;18.29;55.55;101088.72;10385647;28;20053;-59
2023/10/06 17:41:38;;;;;;;12.75;5.10;;;;;;;18.16;56.02;101091.44;10386834;28;20052;-59
2023/10/06 17:46:39;;;;;;;11.20;5.53;;;;;;;17.99;56.42;101083.69;10390783;28;20045;-58
2023/10/06 17:51:43;;;;;;;12.30;4.57;;;;;;;17.84;56.85;101092.00;10386163;28;20132;-58
2023/10/06 17:56:44;;;;;;;16.02;4.53;;;;;;;17.71;57.28;101094.66;10388459;28;20404;-58
2023/10/06 18:01:46;;;;;;;10.85;4.03;;;;;;;17.57;57.66;101087.50;10382582;28;20049;-59
2023/10/06 18:06:49;;;;;;;10.88;3.85;;;;;;;17.44;58.09;101093.75;10385529;28;20041;-58
2023/10/06 18:11:51;;;;;;;8.18;4.10;;;;;;;17.29;58.60;101102.03;10392316;28;20046;-59
2023/10/06 18:17:12;;;;;;;8.70;3.63;;;;;;;17.18;58.76;101099.88;10389369;28;20107;-58
2023/10/06 18:22:14;;;;;;;12.48;4.38;;;;;;;17.08;59.10;101094.84;10384424;28;20092;-58
2023/10/06 18:27:16;;;;;;;21.88;3.90;;;;;;;17.00;59.40;101098.56;10386626;28;20060;-59
2023/10/06 18:32:17;;;;;;;11.27;3.78;;;;;;;16.92;59.57;101101.41;10388216;28;20055;-58
2023/10/06 18:37:18;;;;;;;7.35;3.35;;;;;;;16.82;60.13;101106.34;10385371;28;20048;-58
2023/10/06 18:42:21;;;;;;;7.45;3.63;;;;;;;16.70;60.48;101103.31;10383089;28;20127;-58
2023/10/06 18:47:24;;;;;;;8.18;3.50;;;;;;;16.61;60.38;101099.94;10383876;28;20046;-57
2023/10/06 18:52:26;;;;;;;12.45;4.13;;;;;;;16.58;60.58;101111.16;10384096;28;20100;-57
2023/10/06 18:57:29;;;;;;;12.70;5.63;;;;;;;16.51;60.84;101104.00;10389715;28;20045;-58
2023/10/06 19:02:30;;;;;;;12.50;4.80;;;;;;;16.42;60.91;101098.72;10383449;28;20393;-58
2023/10/06 19:07:33;;;;;;;11.05;4.05;;;;;;;16.34;61.11;101093.44;10390377;28;20567;-58
2023/10/06 19:12:36;;;;;;;10.65;4.43;;;;;;;16.25;61.71;101105.44;10380537;28;20418;-59
2023/10/06 19:17:38;;;;;;;12.77;4.85;;;;;;;16.18;61.59;101101.84;10381955;28;20077;-59
2023/10/06 19:22:39;;;;;;;15.98;4.32;;;;;;;16.09;61.80;101101.13;10380934;28;20131;-59
2023/10/06 19:27:41;;;;;;;10.20;4.75;;;;;;;16.02;62.14;101097.53;10387036;28;20053;-58
2023/10/06 19:32:45;;;;;;;8.52;3.80;;;;;;;15.94;62.35;101087.66;10382434;28;20504;-61
2023/10/06 19:37:48;;;;;;;7.68;2.85;;;;;;;15.88;62.72;101092.97;10379497;28;20056;-58
2023/10/06 19:42:51;;;;;;;10.15;3.05;;;;;;;15.94;62.68;101103.09;10383953;28;20489;-58
2023/10/06 19:47:53;;;;;;;10.30;3.20;;;;;;;15.99;62.82;101090.59;10379327;28;20061;-59
2023/10/06 19:52:55;;;;;;;24.40;11.00;;;;;;;16.05;62.30;101089.84;10382732;28;20095;-58
2023/10/06 19:57:56;;;;;;;8.48;3.20;;;;;;;16.04;62.52;101087.34;10389866;28;20129;-57
2023/10/06 20:02:58;;;;;;;11.55;3.63;;;;;;;16.06;62.74;101102.38;10380800;28;20056;-57
2023/10/06 20:08:01;;;;;;;9.35;3.67;;;;;;;16.01;62.58;101088.53;10384895;28;20551;-57
2023/10/06 20:13:05;;;;;;;7.47;3.55;;;;;;;16.00;62.92;101075.19;10383638;28;20049;-56
2023/10/06 20:18:07;;;;;;;11.63;3.88;;;;;;;16.03;62.74;101081.06;10379132;28;20192;-56
2023/10/06 20:23:08;;;;;;;10.15;3.80;;;;;;;16.04;62.62;101081.91;10382085;28;20132;-56
2023/10/06 20:28:10;;;;;;;13.98;3.83;;;;;;;15.87;63.29;101078.59;10376624;28;20042;-56
2023/10/06 20:33:12;;;;;;;11.15;3.67;;;;;;;15.63;63.72;101088.75;10375729;28;20061;-56
2023/10/06 20:38:14;;;;;;;11.93;3.38;;;;;;;15.53;64.00;101081.97;10378654;28;20045;-56
2023/10/06 20:43:15;;;;;;;6.32;3.08;;;;;;;15.56;63.99;101089.69;10375610;28;20057;-57
2023/10/06 20:48:17;;;;;;;10.88;3.53;;;;;;;15.59;63.97;101097.44;10381830;28;20069;-57
2023/10/06 20:53:18;;;;;;;10.75;3.47;;;;;;;15.55;64.08;101088.03;10376272;28;20136;-55
2023/10/06 20:58:20;;;;;;;7.80;2.92;;;;;;;15.60;63.85;101094.56;10370872;28;20412;-56
2023/10/06 21:03:25;;;;;;;8.93;3.22;;;;;;;15.61;64.02;101089.97;10372532;28;20751;-57
2023/10/06 21:08:29;;;;;;;11.73;3.35;;;;;;;15.66;63.68;101090.25;10375862;28;20053;-58
2023/10/06 21:13:31;;;;;;;7.18;3.15;;;;;;;15.57;63.76;101099.50;10379184;28;20064;-57
2023/10/06 21:18:33;;;;;;;12.38;4.22;;;;;;;15.39;64.16;101095.34;10385690;28;20057;-57
2023/10/06 21:23:34;;;;;;;10.88;4.30;;;;;;;15.24;64.33;101108.06;10386216;28;20144;-58
2023/10/06 21:28:37;;;;;;;8.35;3.88;;;;;;;15.11;64.76;101113.31;10385370;28;20056;-57
2023/10/06 21:33:39;;;;;;;8.90;3.83;;;;;;;15.04;64.81;101113.19;10388819;28;20050;-58
2023/10/06 21:38:40;;;;;;;8.13;3.22;;;;;;;15.03;64.87;101114.25;10387861;28;20116;-58
2023/10/06 21:43:41;;;;;;;10.00;3.38;;;;;;;14.99;64.79;101121.06;10389922;28;20045;-58
2023/10/06 21:48:43;;;;;;;10.25;4.32;;;;;;;14.92;64.96;101114.69;10386613;28;20061;-59
2023/10/06 21:53:45;;;;;;;8.73;3.80;;;;;;;14.81;65.03;101111.44;10378303;28;20045;-58
2023/10/06 21:58:47;;;;;;;13.45;4.32;;;;;;;14.74;65.31;101113.19;10375292;28;20060;-58
2023/10/06 22:03:51;;;;;;;10.63;3.83;;;;;;;14.76;65.58;101111.13;10379741;28;20119;-58
2023/10/06 22:08:53;;;;;;;10.25;3.67;;;;;;;14.78;65.55;101117.19;10382121;28;20132;-57
2023/10/06 22:13:55;;;;;;;10.68;3.50;;;;;;;14.82;65.58;101115.78;10382807;28;20041;-58
2023/10/06 22:18:56;;;;;;;14.15;4.53;;;;;;;14.86;65.38;101125.22;10383967;28;20038;-59
2023/10/06 22:23:58;;;;;;;13.57;3.83;;;;;;;14.84;65.53;101121.03;10379916;28;20061;-58
2023/10/06 22:29:00;;;;;;;12.73;4.28;;;;;;;14.85;65.71;101118.16;10382511;28;20066;-58
2023/10/06 22:34:02;;;;;;;13.27;3.70;;;;;;;14.81;65.67;101113.28;10385753;28;20879;-59
2023/10/06 22:39:09;;;;;;;8.18;3.30;;;;;;;14.72;66.12;101104.41;10376061;28;20053;-58
2023/10/06 22:44:11;;;;;;;10.55;3.75;;;;;;;14.73;66.31;101097.13;10380993;28;20281;-58
2023/10/06 22:49:13;;;;;;;10.32;3.78;;;;;;;14.80;66.25;101107.03;10379456;28;20193;-57
2023/10/06 22:54:15;;;;;;;12.60;3.53;;;;;;;14.79;66.13;101102.66;10379964;28;20374;-58
2023/10/06 22:59:16;;;;;;;12.27;3.63;;;;;;;14.79;66.21;101093.66;10381468;28;20053;-58
2023/10/06 23:04:18;;;;;;;10.15;4.47;;;;;;;14.79;66.39;101091.81;10377285;28;20504;-58
2023/10/06 23:09:19;;;;;;;9.48;3.47;;;;;;;14.81;66.15;101081.66;10380253;28;20460;-58
2023/10/06 23:14:21;;;;;;;8.73;3.40;;;;;;;14.76;66.34;101080.53;10381128;28;20041;-58
2023/10/06 23:19:22;;;;;;;8.52;3.67;;;;;;;14.66;66.55;101088.91;10378327;28;20046;-58
2023/10/06 23:24:24;;;;;;;11.18;3.95;;;;;;;14.65;66.39;101084.50;10374633;28;20060;-58